Time;durP1;ratioP1;P1;durP2;ratioP2;P2;SDS_P1;SDS_P2;PMS_P1;PMS_P2;Temp;Humidity;BMP_temperature;BMP_pressure;BME280_temperature;BME280_humidity;BME280_pressure;Samples;Min_cycle;Max_cycle;Signal;HPM_P1;HPM_P2
2023/11/22 00:00:12;;;;;;;9.93;5.40;;;12.10;74.20;;;;;;2523448;54;20940;-72
2023/11/22 00:02:39;;;;;;;7.25;4.30;;;12.10;74.20;;;;;;2522768;54;21007;-71
2023/11/22 00:05:06;;;;;;;7.30;4.50;;;12.10;74.30;;;;;;2291642;55;21759;-71
2023/11/22 00:07:36;;;;;;;6.50;4.15;;;12.10;74.20;;;;;;2288112;55;20971;-70
2023/11/22 00:10:04;;;;;;;7.45;4.62;;;12.10;74.20;;;;;;2289108;55;21030;-71
2023/11/22 00:12:36;;;;;;;7.40;4.57;;;12.10;74.30;;;;;;2288535;55;20995;-71
2023/11/22 00:15:05;;;;;;;8.15;5.28;;;12.10;74.30;;;;;;2522322;54;21437;-70
2023/11/22 00:17:32;;;;;;;8.25;5.12;;;12.10;74.30;;;;;;2287545;55;21101;-72
2023/11/22 00:20:05;;;;;;;7.05;4.60;;;12.20;74.40;;;;;;2522003;54;21522;-70
2023/11/22 00:22:32;;;;;;;9.32;5.20;;;12.30;74.60;;;;;;2289025;55;20936;-70
2023/11/22 00:25:01;;;;;;;8.50;5.05;;;12.20;74.50;;;;;;2523291;54;20989;-72
2023/11/22 00:27:29;;;;;;;5.87;3.97;;;12.20;74.40;;;;;;2523305;54;21027;-71
2023/11/22 00:29:57;;;;;;;8.05;4.75;;;12.20;74.40;;;;;;2523242;54;20978;-70
2023/11/22 00:32:23;;;;;;;9.05;4.78;;;12.20;74.40;;;;;;2289040;55;21011;-70
2023/11/22 00:34:49;;;;;;;9.07;4.57;;;12.20;74.40;;;;;;2523614;54;20935;-71
2023/11/22 00:37:16;;;;;;;8.13;4.40;;;12.00;74.20;;;;;;2523415;54;21039;-69
2023/11/22 00:39:43;;;;;;;8.02;4.65;;;12.20;74.40;;;;;;2523262;54;21512;-70
2023/11/22 00:42:09;;;;;;;6.78;3.85;;;12.20;74.40;;;;;;2523012;54;20951;-69
2023/11/22 00:44:38;;;;;;;8.57;5.20;;;12.30;74.50;;;;;;2523059;54;21019;-72
2023/11/22 00:47:05;;;;;;;8.50;5.05;;;12.30;75.10;;;;;;2523955;54;21007;-71
2023/11/22 00:49:32;;;;;;;10.73;4.85;;;12.20;74.40;;;;;;2523353;54;22099;-70
2023/11/22 00:52:02;;;;;;;6.72;3.95;;;12.30;74.60;;;;;;2289151;55;21272;-70
2023/11/22 00:54:29;;;;;;;7.80;5.35;;;12.30;74.60;;;;;;2518147;54;21062;-72
2023/11/22 00:56:55;;;;;;;7.57;4.10;;;12.30;74.60;;;;;;2288724;55;21039;-71
2023/11/22 00:59:22;;;;;;;7.15;4.00;;;12.30;74.50;;;;;;2288679;55;21003;-72
2023/11/22 01:01:49;;;;;;;8.57;5.37;;;12.30;74.40;;;;;;2289297;56;20998;-71
2023/11/22 01:04:15;;;;;;;8.38;5.03;;;12.30;74.30;;;;;;2522874;54;21015;-70
2023/11/22 01:06:56;;;;;;;9.90;5.82;;;12.30;74.10;;;;;;2288247;55;21007;-69
2023/11/22 01:09:22;;;;;;;9.02;5.25;;;12.10;73.30;;;;;;2520631;54;20991;-71
2023/11/22 01:11:49;;;;;;;7.82;5.12;;;12.30;73.20;;;;;;2523670;54;21390;-70
2023/11/22 01:14:15;;;;;;;7.50;5.05;;;12.20;72.60;;;;;;2522887;54;20943;-70
2023/11/22 01:16:43;;;;;;;8.45;5.18;;;12.10;72.30;;;;;;2286728;55;20986;-72
2023/11/22 01:19:09;;;;;;;7.90;4.65;;;12.20;72.20;;;;;;2521972;54;21039;-71
2023/11/22 01:21:35;;;;;;;9.23;4.50;;;12.00;72.00;;;;;;2523527;54;20971;-70
2023/11/22 01:24:01;;;;;;;7.43;4.80;;;11.90;72.00;;;;;;2523354;54;20975;-72
2023/11/22 01:26:28;;;;;;;7.30;4.45;;;11.90;72.10;;;;;;2288305;55;21025;-71
2023/11/22 01:28:54;;;;;;;7.15;4.32;;;11.80;72.00;;;;;;2521652;54;21006;-71
2023/11/22 01:31:21;;;;;;;7.72;4.72;;;11.80;72.00;;;;;;2522825;54;20966;-71
2023/11/22 01:33:49;;;;;;;7.18;4.55;;;11.70;71.90;;;;;;2522677;54;21918;-71
2023/11/22 01:36:16;;;;;;;7.03;4.22;;;11.70;71.70;;;;;;2521383;54;20959;-70
2023/11/22 01:38:44;;;;;;;6.00;3.80;;;11.60;71.50;;;;;;2288933;55;21006;-70
2023/11/22 01:41:12;;;;;;;6.75;4.25;;;11.50;71.60;;;;;;2523668;54;20928;-70
2023/11/22 01:43:42;;;;;;;6.85;4.30;;;11.50;71.60;;;;;;2519017;54;21064;-69
2023/11/22 01:46:26;;;;;;;6.57;3.87;;;11.40;71.60;;;;;;2516524;54;21568;-71
2023/11/22 01:48:53;;;;;;;6.45;3.80;;;11.40;71.50;;;;;;2522775;54;21012;-69
2023/11/22 01:51:23;;;;;;;7.05;3.87;;;11.30;71.60;;;;;;2521684;54;20963;-71
2023/11/22 01:53:56;;;;;;;6.90;4.23;;;11.20;71.60;;;;;;2521142;54;21516;-70
2023/11/22 01:56:23;;;;;;;5.35;3.37;;;11.20;71.70;;;;;;2288421;55;20960;-71
2023/11/22 01:58:50;;;;;;;5.32;3.30;;;11.10;71.70;;;;;;2289551;55;20999;-70
2023/11/22 02:01:16;;;;;;;5.80;3.60;;;11.20;71.90;;;;;;2288040;55;20975;-69
2023/11/22 02:03:44;;;;;;;6.85;3.55;;;11.10;71.90;;;;;;2288878;55;21814;-70
2023/11/22 02:06:11;;;;;;;5.35;3.58;;;11.00;71.90;;;;;;2522047;54;21901;-71
2023/11/22 02:08:37;;;;;;;5.95;3.40;;;10.90;71.90;;;;;;2518518;54;20976;-70
2023/11/22 02:11:03;;;;;;;6.15;3.80;;;10.90;71.90;;;;;;2523256;54;20963;-70
2023/11/22 02:13:30;;;;;;;6.40;4.00;;;10.90;71.90;;;;;;2523640;54;21018;-69
2023/11/22 02:15:59;;;;;;;5.10;3.12;;;10.90;71.80;;;;;;2288746;55;20984;-70
2023/11/22 02:18:26;;;;;;;6.00;3.45;;;10.80;71.70;;;;;;2523459;54;21038;-71
2023/11/22 02:20:52;;;;;;;6.57;3.22;;;10.80;71.70;;;;;;2492355;54;21449;-71
2023/11/22 02:23:19;;;;;;;5.40;3.15;;;10.70;71.70;;;;;;2522795;54;21822;-72
2023/11/22 02:25:50;;;;;;;5.35;3.35;;;10.70;71.60;;;;;;2523645;54;21739;-69
2023/11/22 02:28:16;;;;;;;5.85;3.22;;;10.60;71.50;;;;;;2522397;54;21002;-70
2023/11/22 02:30:43;;;;;;;4.97;3.25;;;10.60;71.30;;;;;;2288998;55;20983;-72
2023/11/22 02:33:09;;;;;;;6.47;3.40;;;10.50;71.20;;;;;;2522284;54;20995;-70
2023/11/22 02:35:35;;;;;;;5.82;3.67;;;10.50;71.30;;;;;;2288717;55;21200;-70
2023/11/22 02:38:03;;;;;;;8.45;3.20;;;10.30;71.20;;;;;;2522942;54;20987;-70
2023/11/22 02:40:29;;;;;;;5.68;3.75;;;10.40;71.20;;;;;;2523220;54;20972;-70
2023/11/22 02:42:58;;;;;;;5.37;3.20;;;10.30;71.20;;;;;;2523278;54;21079;-70
2023/11/22 02:45:39;;;;;;;5.75;3.40;;;10.30;71.20;;;;;;2523197;54;21035;-70
2023/11/22 02:48:09;;;;;;;4.97;3.20;;;10.20;70.90;;;;;;2287570;55;20970;-70
2023/11/22 02:50:39;;;;;;;5.80;3.42;;;10.10;71.00;;;;;;2523293;54;21055;-70
2023/11/22 02:53:05;;;;;;;5.65;2.58;;;10.10;71.10;;;;;;2287495;55;20979;-70
2023/11/22 02:55:34;;;;;;;5.85;3.50;;;10.00;71.10;;;;;;2523459;54;20999;-70
2023/11/22 02:58:02;;;;;;;5.53;3.28;;;10.00;71.20;;;;;;2523076;54;21116;-69
2023/11/22 03:00:37;;;;;;;5.80;3.40;;;9.90;72.20;;;;;;2519997;54;21085;-72
2023/11/22 03:03:08;;;;;;;5.45;3.50;;;9.90;72.10;;;;;;2286311;55;21839;-70
2023/11/22 03:05:34;;;;;;;6.45;3.03;;;9.80;72.20;;;;;;2517355;54;21780;-69
2023/11/22 03:08:01;;;;;;;5.45;3.67;;;9.80;72.20;;;;;;2523342;54;21115;-71
2023/11/22 03:10:27;;;;;;;4.55;2.90;;;9.80;72.20;;;;;;2289711;55;20940;-70
2023/11/22 03:12:54;;;;;;;4.57;3.00;;;9.70;72.30;;;;;;2289391;55;21850;-71
2023/11/22 03:15:20;;;;;;;5.53;3.35;;;9.70;72.40;;;;;;2523175;54;20995;-70
2023/11/22 03:17:49;;;;;;;5.93;3.72;;;9.60;72.30;;;;;;2523274;54;20987;-68
2023/11/22 03:20:16;;;;;;;4.78;2.97;;;9.60;72.30;;;;;;2522245;54;20967;-69
2023/11/22 03:22:43;;;;;;;5.05;2.92;;;9.50;72.20;;;;;;2517582;54;21036;-71
2023/11/22 03:25:10;;;;;;;5.20;3.10;;;9.50;72.30;;;;;;2285879;55;21477;-71
2023/11/22 03:27:40;;;;;;;5.55;3.17;;;9.50;72.50;;;;;;2520550;54;21012;-71
2023/11/22 03:30:11;;;;;;;5.03;2.70;;;9.50;72.60;;;;;;2287921;55;21003;-72
2023/11/22 03:32:39;;;;;;;4.30;2.67;;;9.40;72.60;;;;;;2288873;55;20983;-72
2023/11/22 03:35:07;;;;;;;4.45;2.30;;;9.40;72.70;;;;;;2288838;55;21015;-69
2023/11/22 03:37:33;;;;;;;3.97;2.47;;;9.40;72.80;;;;;;2288340;55;20975;-72
2023/11/22 03:40:00;;;;;;;4.50;2.50;;;9.40;72.90;;;;;;2288178;55;21355;-70
2023/11/22 03:42:29;;;;;;;4.53;2.90;;;9.30;72.80;;;;;;2289009;55;20987;-70
2023/11/22 03:44:55;;;;;;;6.68;3.47;;;9.30;72.80;;;;;;2523204;54;21019;-72
2023/11/22 03:47:21;;;;;;;4.15;2.55;;;9.30;72.70;;;;;;2523040;54;21030;-71
2023/11/22 03:49:48;;;;;;;4.60;2.78;;;9.30;72.70;;;;;;2523925;54;20958;-71
2023/11/22 03:52:14;;;;;;;4.05;2.42;;;9.30;72.80;;;;;;2288680;55;20999;-71
2023/11/22 03:54:42;;;;;;;4.87;2.78;;;9.20;72.70;;;;;;2523587;54;20995;-69
2023/11/22 03:57:08;;;;;;;4.55;2.75;;;9.20;73.30;;;;;;2522446;54;20952;-71
2023/11/22 03:59:36;;;;;;;4.37;2.35;;;9.20;72.70;;;;;;2290061;55;20998;-71
2023/11/22 04:02:02;;;;;;;4.37;2.40;;;9.20;72.70;;;;;;2286323;55;20971;-71
2023/11/22 04:04:30;;;;;;;3.95;2.17;;;9.30;72.90;;;;;;2288447;55;21015;-70
2023/11/22 04:06:56;;;;;;;3.62;2.00;;;9.10;72.80;;;;;;2523830;54;20967;-70
2023/11/22 04:09:22;;;;;;;3.97;2.15;;;9.10;72.80;;;;;;2523557;54;21013;-70
2023/11/22 04:11:49;;;;;;;3.97;2.10;;;9.10;72.90;;;;;;2523220;54;21055;-69
2023/11/22 04:14:15;;;;;;;3.97;2.30;;;9.10;73.00;;;;;;2523415;54;20958;-70
2023/11/22 04:16:41;;;;;;;3.25;1.83;;;9.10;73.00;;;;;;2518245;54;20950;-70
2023/11/22 04:19:07;;;;;;;3.65;1.90;;;9.10;73.10;;;;;;2287873;55;21203;-71
2023/11/22 04:21:34;;;;;;;3.45;1.87;;;9.10;73.10;;;;;;2289365;55;21038;-71
2023/11/22 04:24:00;;;;;;;3.15;1.55;;;9.00;72.90;;;;;;2517019;55;21101;-71
2023/11/22 04:26:27;;;;;;;3.70;2.22;;;9.00;72.80;;;;;;2522082;54;21473;-69
2023/11/22 04:28:53;;;;;;;3.17;1.67;;;9.00;72.70;;;;;;2518075;54;20930;-71
2023/11/22 04:31:20;;;;;;;2.78;1.40;;;9.00;72.60;;;;;;2284336;55;21031;-70
2023/11/22 04:33:46;;;;;;;2.97;1.50;;;9.00;72.60;;;;;;2523629;54;20947;-70
2023/11/22 04:36:12;;;;;;;3.55;1.50;;;9.00;72.60;;;;;;2522867;54;20971;-70
2023/11/22 04:38:39;;;;;;;2.80;1.30;;;8.90;72.50;;;;;;2522180;54;20963;-69
2023/11/22 04:41:09;;;;;;;3.17;1.52;;;8.90;72.60;;;;;;2288824;55;21378;-69
2023/11/22 04:43:36;;;;;;;3.42;1.62;;;8.90;72.60;;;;;;2520971;54;21023;-69
2023/11/22 04:46:04;;;;;;;3.10;1.45;;;8.90;72.50;;;;;;2523683;54;20979;-69
2023/11/22 04:48:30;;;;;;;3.10;1.33;;;8.90;72.50;;;;;;2286869;55;20939;-69
2023/11/22 04:50:56;;;;;;;9.68;1.80;;;8.80;72.40;;;;;;2288215;55;20964;-70
2023/11/22 04:53:23;;;;;;;3.22;1.73;;;8.80;72.40;;;;;;2520506;54;20990;-70
2023/11/22 04:55:49;;;;;;;2.70;1.30;;;8.80;72.40;;;;;;2520139;54;22531;-70
2023/11/22 04:58:15;;;;;;;2.80;1.42;;;8.80;72.40;;;;;;2523296;54;21023;-72
2023/11/22 05:00:41;;;;;;;3.22;1.73;;;8.80;72.50;;;;;;2288944;54;20966;-70
2023/11/22 05:03:11;;;;;;;3.05;1.40;;;8.80;72.50;;;;;;2287621;54;20971;-69
2023/11/22 05:05:37;;;;;;;2.87;1.50;;;8.80;72.40;;;;;;2288706;55;21031;-71
2023/11/22 05:08:04;;;;;;;2.80;1.33;;;8.70;72.30;;;;;;2266369;55;21492;-69
2023/11/22 05:10:30;;;;;;;2.47;1.30;;;8.70;72.30;;;;;;2523043;54;20963;-69
2023/11/22 05:12:59;;;;;;;3.30;1.55;;;8.70;72.40;;;;;;2523847;54;21046;-71
2023/11/22 05:15:26;;;;;;;3.00;1.52;;;8.70;72.30;;;;;;2288673;55;20999;-69
2023/11/22 05:17:55;;;;;;;3.00;1.30;;;8.70;72.20;;;;;;2291159;55;20966;-69
2023/11/22 05:20:22;;;;;;;2.42;1.30;;;8.70;72.30;;;;;;2517984;54;20999;-69
2023/11/22 05:22:48;;;;;;;2.50;1.10;;;8.70;72.40;;;;;;2288987;55;21775;-71
2023/11/22 05:25:15;;;;;;;3.53;1.65;;;8.60;72.20;;;;;;2288961;55;20970;-70
2023/11/22 05:27:41;;;;;;;4.10;1.58;;;8.60;72.30;;;;;;2522752;54;20955;-70
2023/11/22 05:30:10;;;;;;;3.05;1.45;;;8.60;72.40;;;;;;2287794;55;20976;-69
2023/11/22 05:32:37;;;;;;;2.70;1.30;;;8.60;72.40;;;;;;2522781;54;21035;-71
2023/11/22 05:35:06;;;;;;;3.58;1.67;;;8.60;72.20;;;;;;2523325;54;21004;-71
2023/11/22 05:37:32;;;;;;;2.90;1.40;;;8.60;72.20;;;;;;2288741;55;21015;-70
2023/11/22 05:39:59;;;;;;;2.75;1.50;;;8.50;72.00;;;;;;2523106;54;21377;-71
2023/11/22 05:42:25;;;;;;;3.42;1.50;;;8.50;71.90;;;;;;2521885;54;21821;-69
2023/11/22 05:44:51;;;;;;;3.90;2.20;;;8.50;71.90;;;;;;2288798;55;21007;-69
2023/11/22 05:47:18;;;;;;;2.65;1.48;;;8.50;71.90;;;;;;2522803;54;20995;-69
2023/11/22 05:49:44;;;;;;;3.65;1.85;;;8.50;71.90;;;;;;2522837;54;21557;-70
2023/11/22 05:52:12;;;;;;;3.75;1.85;;;8.40;71.80;;;;;;2522672;54;20984;-69
2023/11/22 05:54:41;;;;;;;4.65;2.05;;;8.40;71.90;;;;;;2523857;54;21008;-69
2023/11/22 05:57:09;;;;;;;3.35;1.73;;;8.40;71.90;;;;;;2523022;54;20988;-70
2023/11/22 05:59:36;;;;;;;4.07;2.00;;;8.40;72.00;;;;;;2288172;55;21016;-70
2023/11/22 06:02:02;;;;;;;4.62;2.12;;;8.40;72.00;;;;;;2288960;55;21477;-69
2023/11/22 06:04:30;;;;;;;7.12;2.20;;;8.30;71.90;;;;;;2288917;55;21011;-71
2023/11/22 06:06:57;;;;;;;4.15;2.12;;;8.30;72.00;;;;;;2523348;54;21101;-71
2023/11/22 06:09:25;;;;;;;3.95;2.30;;;8.30;72.00;;;;;;2522566;54;20957;-71
2023/11/22 06:11:51;;;;;;;4.97;2.40;;;8.30;72.00;;;;;;2522572;54;21037;-69
2023/11/22 06:14:19;;;;;;;4.05;2.37;;;8.30;71.90;;;;;;2288861;55;21484;-69
2023/11/22 06:16:47;;;;;;;4.62;2.58;;;8.20;71.80;;;;;;2288925;55;21055;-69
2023/11/22 06:19:13;;;;;;;4.90;2.72;;;8.20;71.70;;;;;;2291389;55;20991;-69
2023/11/22 06:21:40;;;;;;;5.62;2.33;;;8.20;71.70;;;;;;2519644;54;21062;-70
2023/11/22 06:24:08;;;;;;;4.75;2.40;;;8.20;71.70;;;;;;2518885;54;21555;-68
2023/11/22 06:26:34;;;;;;;5.40;2.55;;;8.10;71.70;;;;;;2522622;54;21540;-71
2023/11/22 06:29:02;;;;;;;5.93;2.97;;;8.10;71.70;;;;;;2523778;54;20983;-71
2023/11/22 06:31:29;;;;;;;4.80;2.53;;;8.10;71.60;;;;;;2523185;54;20959;-70
2023/11/22 06:33:55;;;;;;;5.10;2.90;;;8.10;71.60;;;;;;2522587;54;20967;-69
2023/11/22 06:36:21;;;;;;;5.72;2.67;;;8.00;71.40;;;;;;2522949;54;21019;-70
2023/11/22 06:38:48;;;;;;;5.87;2.65;;;8.00;71.40;;;;;;2522122;54;21007;-71
2023/11/22 06:41:14;;;;;;;4.32;2.47;;;7.90;71.50;;;;;;2523478;54;21019;-70
2023/11/22 06:43:43;;;;;;;4.57;2.75;;;8.00;71.60;;;;;;2523534;54;21011;-71
2023/11/22 06:46:11;;;;;;;4.47;2.80;;;7.90;71.50;;;;;;2288732;55;21444;-69
2023/11/22 06:48:37;;;;;;;4.57;2.45;;;7.90;71.50;;;;;;2288985;55;21100;-69
2023/11/22 06:51:04;;;;;;;4.80;2.58;;;7.90;71.60;;;;;;2288716;55;20977;-69
2023/11/22 06:53:30;;;;;;;4.85;2.80;;;7.80;71.50;;;;;;2287992;55;20967;-71
2023/11/22 06:55:56;;;;;;;4.55;2.37;;;7.80;71.50;;;;;;2288975;55;20951;-71
2023/11/22 06:58:24;;;;;;;5.50;2.50;;;7.80;71.50;;;;;;2287736;55;21099;-70
2023/11/22 07:00:51;;;;;;;4.87;2.65;;;7.80;71.40;;;;;;2288729;55;21032;-69
2023/11/22 07:03:18;;;;;;;4.80;2.62;;;7.70;71.20;;;;;;2522838;54;20955;-69
2023/11/22 07:05:44;;;;;;;5.45;2.67;;;7.70;71.20;;;;;;2289154;55;20959;-69
2023/11/22 07:08:12;;;;;;;5.50;2.40;;;7.70;71.20;;;;;;2288130;55;21269;-70
2023/11/22 07:10:40;;;;;;;5.53;2.47;;;7.80;71.40;;;;;;2523630;54;21055;-70
2023/11/22 07:13:06;;;;;;;5.95;2.90;;;7.60;71.20;;;;;;2523214;54;21413;-71
2023/11/22 07:15:33;;;;;;;4.53;2.42;;;7.60;71.20;;;;;;2521193;54;20983;-71
2023/11/22 07:18:03;;;;;;;5.85;2.75;;;7.60;71.30;;;;;;2520457;54;21401;-69
2023/11/22 07:20:29;;;;;;;4.65;2.53;;;7.50;71.30;;;;;;2288440;55;21026;-71
2023/11/22 07:22:57;;;;;;;4.28;2.45;;;7.50;71.40;;;;;;2523419;54;20919;-72
2023/11/22 07:25:26;;;;;;;5.18;3.17;;;7.50;71.40;;;;;;2288803;55;20967;-69
2023/11/22 07:27:55;;;;;;;5.32;2.97;;;7.50;71.50;;;;;;2523586;54;21429;-69
2023/11/22 07:30:27;;;;;;;5.70;3.10;;;7.50;71.50;;;;;;2523298;54;21556;-70
2023/11/22 07:32:53;;;;;;;5.37;2.80;;;7.50;71.50;;;;;;2519500;54;20958;-69
2023/11/22 07:35:22;;;;;;;5.12;2.85;;;7.50;71.60;;;;;;2521785;54;21877;-70
2023/11/22 07:37:48;;;;;;;4.82;2.50;;;7.50;71.70;;;;;;2492349;54;20975;-70
2023/11/22 07:40:15;;;;;;;5.12;2.62;;;7.50;71.70;;;;;;2288522;55;21034;-69
2023/11/22 07:42:43;;;;;;;5.62;3.05;;;7.40;71.50;;;;;;2520683;54;21046;-71
2023/11/22 07:45:11;;;;;;;4.93;2.53;;;7.40;71.50;;;;;;2519963;54;20988;-70
2023/11/22 07:47:41;;;;;;;5.22;2.78;;;7.40;71.50;;;;;;2522830;54;21031;-70
2023/11/22 07:50:08;;;;;;;5.28;3.03;;;7.40;71.60;;;;;;2523308;54;21520;-68
2023/11/22 07:52:40;;;;;;;5.15;2.75;;;7.40;71.80;;;;;;2291807;55;20979;-69
2023/11/22 07:55:08;;;;;;;5.60;2.58;;;7.40;71.90;;;;;;2518949;54;21026;-68
2023/11/22 07:57:34;;;;;;;4.93;2.55;;;7.40;72.00;;;;;;2523680;54;20951;-70
2023/11/22 08:00:04;;;;;;;4.93;2.83;;;7.40;72.00;;;;;;2518686;54;21357;-68
2023/11/22 08:02:31;;;;;;;6.35;2.62;;;7.40;72.00;;;;;;2522199;54;21819;-71
2023/11/22 08:05:01;;;;;;;4.72;2.58;;;7.40;71.80;;;;;;2288431;55;20952;-69
2023/11/22 08:07:28;;;;;;;4.97;2.50;;;7.40;71.80;;;;;;2287421;55;21468;-70
2023/11/22 08:09:58;;;;;;;5.62;2.95;;;7.40;71.70;;;;;;2523764;54;20999;-69
2023/11/22 08:12:24;;;;;;;4.70;2.47;;;7.40;71.60;;;;;;2523374;54;21007;-70
2023/11/22 08:14:55;;;;;;;6.90;2.80;;;7.40;71.60;;;;;;2288532;55;20939;-71
2023/11/22 08:17:21;;;;;;;5.25;3.00;;;7.40;71.70;;;;;;2290853;55;21590;-69
2023/11/22 08:19:48;;;;;;;5.53;2.72;;;7.40;71.70;;;;;;2519090;54;21050;-70
2023/11/22 08:22:14;;;;;;;4.60;2.70;;;7.40;71.70;;;;;;2523375;54;20956;-69
2023/11/22 08:24:41;;;;;;;5.43;2.70;;;7.30;71.50;;;;;;2523322;54;20955;-72
2023/11/22 08:27:07;;;;;;;4.80;2.62;;;7.30;71.50;;;;;;2523188;54;21579;-68
2023/11/22 08:29:34;;;;;;;5.28;2.58;;;7.30;71.70;;;;;;2517720;54;21006;-69
2023/11/22 08:32:03;;;;;;;5.20;2.85;;;7.30;71.70;;;;;;2523445;54;20979;-71
2023/11/22 08:34:31;;;;;;;4.62;2.22;;;7.30;71.80;;;;;;2287473;54;21026;-71
2023/11/22 08:36:58;;;;;;;3.95;2.00;;;7.40;71.90;;;;;;2523901;54;21503;-71
2023/11/22 08:39:25;;;;;;;3.97;1.98;;;7.30;71.90;;;;;;2521948;54;21051;-70
2023/11/22 08:41:51;;;;;;;4.62;2.00;;;7.30;72.00;;;;;;2518808;54;20999;-72
2023/11/22 08:44:21;;;;;;;4.05;2.03;;;7.40;72.20;;;;;;2523602;54;20987;-69
2023/11/22 08:46:49;;;;;;;3.90;2.10;;;7.40;72.10;;;;;;2288658;55;20975;-70
2023/11/22 08:49:15;;;;;;;4.00;2.20;;;7.40;72.10;;;;;;2523262;54;20975;-69
2023/11/22 08:51:42;;;;;;;4.72;2.28;;;7.40;72.00;;;;;;2289309;55;20983;-71
2023/11/22 08:54:09;;;;;;;4.53;2.37;;;7.40;72.00;;;;;;2288563;56;20957;-68
2023/11/22 08:56:38;;;;;;;4.05;2.10;;;7.40;71.90;;;;;;2522409;54;21652;-71
2023/11/22 08:59:05;;;;;;;4.45;2.10;;;7.40;71.80;;;;;;2288717;55;20987;-69
2023/11/22 09:01:31;;;;;;;6.18;2.28;;;7.40;71.60;;;;;;2288451;55;21035;-71
2023/11/22 09:03:59;;;;;;;4.57;2.60;;;7.40;71.60;;;;;;2523351;54;20987;-71
2023/11/22 09:06:43;;;;;;;6.25;2.45;;;7.40;71.50;;;;;;2287932;55;20972;-69
2023/11/22 09:09:15;;;;;;;4.47;2.37;;;7.40;71.00;;;;;;2521729;54;21019;-70
2023/11/22 09:11:41;;;;;;;5.03;2.12;;;7.40;71.30;;;;;;2522729;54;20959;-71
2023/11/22 09:14:10;;;;;;;3.90;2.03;;;7.40;71.30;;;;;;2289297;55;21043;-69
2023/11/22 09:16:38;;;;;;;4.30;2.17;;;7.30;71.20;;;;;;2288538;55;20967;-70
2023/11/22 09:19:09;;;;;;;4.15;2.08;;;7.30;71.30;;;;;;2522885;54;20951;-69
2023/11/22 09:21:35;;;;;;;4.18;2.22;;;7.30;71.20;;;;;;2522494;54;21472;-69
2023/11/22 09:24:05;;;;;;;4.15;2.40;;;7.30;71.20;;;;;;2523789;54;21787;-70
2023/11/22 09:26:32;;;;;;;4.70;2.37;;;7.30;71.00;;;;;;2492542;54;20952;-70
2023/11/22 09:28:58;;;;;;;5.35;2.85;;;7.30;71.00;;;;;;2523504;54;21240;-70
2023/11/22 09:31:25;;;;;;;5.00;2.25;;;7.30;71.00;;;;;;2522428;54;21049;-69
2023/11/22 09:33:52;;;;;;;4.00;1.92;;;7.30;71.00;;;;;;2290186;55;21507;-69
2023/11/22 09:36:21;;;;;;;3.83;2.03;;;7.20;71.00;;;;;;2285333;55;20991;-70
2023/11/22 09:38:48;;;;;;;7.00;2.50;;;7.20;71.20;;;;;;2517865;54;20998;-69
2023/11/22 09:41:16;;;;;;;3.72;2.00;;;7.20;71.40;;;;;;2523056;54;21050;-71
2023/11/22 09:43:43;;;;;;;4.35;2.10;;;7.20;71.60;;;;;;2289047;55;20950;-70
2023/11/22 09:46:11;;;;;;;4.47;2.25;;;7.20;71.70;;;;;;2519798;54;21043;-71
2023/11/22 09:48:37;;;;;;;5.03;2.65;;;7.20;71.70;;;;;;2285153;54;20939;-69
2023/11/22 09:51:28;;;;;;;5.35;2.55;;;7.30;71.60;;;;;;2523223;54;21765;-71
2023/11/22 09:53:59;;;;;;;4.47;2.50;;;7.30;71.20;;;;;;2523527;54;20976;-70
2023/11/22 09:56:27;;;;;;;4.68;2.22;;;7.30;71.50;;;;;;2288480;55;21003;-71
2023/11/22 09:58:56;;;;;;;3.78;2.03;;;7.30;71.50;;;;;;2523511;54;21452;-70
2023/11/22 10:01:23;;;;;;;4.45;2.28;;;7.30;71.50;;;;;;2288549;54;21039;-70
2023/11/22 10:03:49;;;;;;;4.32;2.15;;;7.30;71.50;;;;;;2288638;55;21339;-69
2023/11/22 10:06:16;;;;;;;4.18;2.15;;;7.30;71.50;;;;;;2523065;54;21689;-70
2023/11/22 10:08:42;;;;;;;5.45;2.47;;;7.20;71.40;;;;;;2522540;54;21063;-71
2023/11/22 10:11:09;;;;;;;3.58;2.15;;;7.20;71.30;;;;;;2522982;54;20964;-70
2023/11/22 10:13:35;;;;;;;4.10;2.20;;;7.20;71.30;;;;;;2523533;54;21299;-69
2023/11/22 10:16:12;;;;;;;4.22;2.25;;;7.20;71.30;;;;;;2289267;55;21010;-70
2023/11/22 10:18:42;;;;;;;3.53;2.05;;;7.20;71.00;;;;;;2289059;55;20979;-70
2023/11/22 10:21:23;;;;;;;3.90;2.05;;;7.20;71.10;;;;;;2289307;55;21030;-70
2023/11/22 10:24:11;;;;;;;4.87;2.62;;;7.20;70.90;;;;;;2523402;54;21496;-69
2023/11/22 10:26:38;;;;;;;5.65;2.22;;;7.20;70.50;;;;;;2266598;56;21019;-70
2023/11/22 10:29:04;;;;;;;3.50;1.83;;;7.20;71.00;;;;;;2524101;54;20996;-71
2023/11/22 10:31:30;;;;;;;4.47;2.30;;;7.20;71.00;;;;;;2522989;54;21750;-70
2023/11/22 10:33:57;;;;;;;4.18;2.10;;;7.20;71.20;;;;;;2289624;55;20979;-69
2023/11/22 10:36:23;;;;;;;4.18;2.12;;;7.20;71.40;;;;;;2520754;54;21006;-70
2023/11/22 10:38:52;;;;;;;4.78;2.20;;;7.20;71.50;;;;;;2521668;54;20995;-70
2023/11/22 10:41:24;;;;;;;4.90;2.62;;;7.20;71.50;;;;;;2288793;55;21046;-70
2023/11/22 10:43:54;;;;;;;4.40;2.33;;;7.30;71.50;;;;;;2288896;54;21043;-69
2023/11/22 10:46:21;;;;;;;4.95;2.30;;;7.30;71.40;;;;;;2523340;54;21007;-69
2023/11/22 10:48:48;;;;;;;5.00;2.17;;;7.30;71.50;;;;;;2523672;54;21055;-70
2023/11/22 10:51:20;;;;;;;3.87;2.10;;;7.30;71.50;;;;;;2523399;54;20947;-71
2023/11/22 10:53:49;;;;;;;4.50;2.22;;;7.30;71.80;;;;;;2523691;54;20951;-72
2023/11/22 10:56:18;;;;;;;4.78;2.12;;;7.30;71.90;;;;;;2289091;54;21008;-69
2023/11/22 10:58:52;;;;;;;4.57;1.87;;;7.40;71.90;;;;;;2523995;54;20939;-70
2023/11/22 11:01:19;;;;;;;3.95;2.15;;;7.40;71.90;;;;;;2523813;54;20972;-68
2023/11/22 11:03:49;;;;;;;3.95;2.35;;;7.40;72.00;;;;;;2288400;55;20991;-69
2023/11/22 11:06:15;;;;;;;4.55;2.10;;;7.50;72.10;;;;;;2522826;54;20956;-70
2023/11/22 11:08:45;;;;;;;5.95;2.65;;;7.50;72.10;;;;;;2517539;54;20994;-71
2023/11/22 11:11:12;;;;;;;4.62;2.50;;;7.50;71.90;;;;;;2289191;55;21070;-70
2023/11/22 11:13:39;;;;;;;5.07;2.20;;;7.50;71.90;;;;;;2516855;54;21097;-69
2023/11/22 11:16:06;;;;;;;4.10;1.92;;;7.60;72.00;;;;;;2289606;55;20955;-70
2023/11/22 11:18:32;;;;;;;4.18;2.10;;;7.60;71.90;;;;;;2518645;54;20970;-69
2023/11/22 11:20:59;;;;;;;5.05;2.55;;;7.60;71.70;;;;;;2518914;54;20970;-68
2023/11/22 11:23:26;;;;;;;4.50;2.30;;;7.70;71.60;;;;;;2522805;54;20976;-68
2023/11/22 11:25:57;;;;;;;4.43;2.08;;;7.70;71.40;;;;;;2288858;55;20979;-70
2023/11/22 11:28:27;;;;;;;3.87;1.85;;;7.70;71.20;;;;;;2522673;54;20995;-71
2023/11/22 11:30:53;;;;;;;5.00;1.98;;;7.70;71.10;;;;;;2294328;55;21365;-69
2023/11/22 11:33:32;;;;;;;4.53;2.28;;;7.70;71.00;;;;;;2281459;55;20951;-69
2023/11/22 11:36:00;;;;;;;4.95;2.28;;;7.70;70.80;;;;;;2288627;55;21007;-68
2023/11/22 11:38:34;;;;;;;4.40;2.55;;;7.70;71.10;;;;;;2288863;55;21026;-70
2023/11/22 11:41:13;;;;;;;4.82;2.55;;;7.70;70.80;;;;;;2288851;55;20963;-67
2023/11/22 11:43:46;;;;;;;5.07;2.70;;;7.70;70.70;;;;;;2523244;54;20971;-69
2023/11/22 11:46:12;;;;;;;5.57;2.17;;;7.70;70.90;;;;;;2523043;54;20967;-70
2023/11/22 11:48:48;;;;;;;4.25;1.87;;;7.70;70.90;;;;;;2519083;54;20966;-71
2023/11/22 11:51:16;;;;;;;5.32;2.53;;;7.70;70.60;;;;;;2521931;54;21055;-69
2023/11/22 11:53:42;;;;;;;5.20;2.10;;;7.70;70.80;;;;;;2523312;54;20967;-71
2023/11/22 11:56:09;;;;;;;5.22;2.45;;;7.70;70.90;;;;;;2289579;54;20966;-68
2023/11/22 11:58:35;;;;;;;4.55;2.22;;;7.70;71.00;;;;;;2287328;55;20995;-69
2023/11/22 12:01:02;;;;;;;5.25;2.67;;;7.70;70.90;;;;;;2523291;54;21460;-70
2023/11/22 12:03:29;;;;;;;5.03;2.37;;;7.70;70.80;;;;;;2518947;54;20979;-69
2023/11/22 12:05:56;;;;;;;4.12;2.00;;;7.70;70.70;;;;;;2523969;54;20968;-69
2023/11/22 12:08:23;;;;;;;3.97;2.15;;;7.70;70.60;;;;;;2523276;54;21192;-69
2023/11/22 12:10:49;;;;;;;4.25;2.40;;;7.70;70.60;;;;;;2523133;54;20971;-70
2023/11/22 12:13:20;;;;;;;4.53;2.55;;;7.70;70.50;;;;;;2288385;54;20990;-69
2023/11/22 12:15:47;;;;;;;5.03;2.58;;;7.70;70.40;;;;;;2289203;55;21011;-71
2023/11/22 12:18:13;;;;;;;6.37;2.80;;;7.70;70.50;;;;;;2294475;55;21019;-70
2023/11/22 12:20:39;;;;;;;5.55;2.70;;;7.70;70.50;;;;;;2286553;55;20962;-68
2023/11/22 12:23:06;;;;;;;4.20;2.42;;;7.70;70.60;;;;;;2289812;55;20956;-70
2023/11/22 12:25:33;;;;;;;5.05;2.28;;;7.70;70.50;;;;;;2289165;55;20976;-71
2023/11/22 12:27:59;;;;;;;4.15;2.40;;;7.70;70.60;;;;;;2523031;54;20976;-70
2023/11/22 12:30:35;;;;;;;4.72;2.40;;;7.70;70.60;;;;;;2288527;55;21027;-68
2023/11/22 12:33:05;;;;;;;5.28;2.75;;;7.70;70.30;;;;;;2288905;55;20980;-69
2023/11/22 12:35:33;;;;;;;4.60;2.58;;;7.60;70.30;;;;;;2523716;54;21019;-68
2023/11/22 12:38:00;;;;;;;5.50;2.30;;;7.60;70.50;;;;;;2523266;54;21436;-68
2023/11/22 12:40:33;;;;;;;4.65;2.40;;;7.60;70.70;;;;;;2289858;56;21035;-68
2023/11/22 12:43:00;;;;;;;5.72;2.80;;;7.60;70.60;;;;;;2522622;54;20951;-70
2023/11/22 12:45:28;;;;;;;4.60;2.47;;;7.60;70.70;;;;;;2289642;54;20980;-69
2023/11/22 12:47:58;;;;;;;5.00;2.65;;;7.60;70.70;;;;;;2521584;54;21035;-70
2023/11/22 12:50:39;;;;;;;5.55;2.83;;;7.60;70.70;;;;;;2287243;55;20959;-70
2023/11/22 12:53:10;;;;;;;4.12;2.28;;;7.60;70.20;;;;;;2288147;55;20979;-68
2023/11/22 12:55:38;;;;;;;4.30;2.40;;;7.60;70.50;;;;;;2518886;54;21063;-68
2023/11/22 12:58:07;;;;;;;4.90;2.70;;;7.60;70.60;;;;;;2288189;55;21468;-70